createdAt,value
2018-06-29T00:00:58.275Z,3.70
2018-06-29T00:04:01.810Z,3.30
2018-06-29T00:07:05.443Z,4.00
2018-06-29T00:10:08.912Z,4.00
2018-06-29T00:13:12.417Z,3.50
2018-06-29T00:16:16.147Z,4.00
2018-06-29T00:19:19.790Z,3.50
2018-06-29T00:22:23.427Z,3.70
2018-06-29T00:25:27.027Z,4.00
2018-06-29T00:28:30.658Z,3.87
2018-06-29T00:31:34.079Z,3.80
2018-06-29T00:34:37.615Z,3.30
2018-06-29T00:37:41.221Z,3.70
2018-06-29T00:40:44.912Z,3.30
2018-06-29T00:43:48.607Z,3.77
2018-06-29T00:46:52.273Z,3.63
2018-06-29T00:49:55.884Z,3.70
2018-06-29T00:52:59.506Z,3.60
2018-06-29T00:56:03.110Z,3.70
2018-06-29T00:59:06.734Z,3.67
2018-06-29T01:02:10.339Z,3.70
2018-06-29T01:05:13.955Z,3.33
2018-06-29T01:08:17.619Z,3.30
2018-06-29T01:11:21.182Z,3.73
2018-06-29T01:14:24.600Z,3.70
2018-06-29T01:17:28.133Z,4.03
2018-06-29T01:20:32.539Z,3.30
2018-06-29T01:23:36.166Z,3.53
2018-06-29T01:26:39.773Z,3.20
2018-06-29T01:29:43.401Z,3.80
2018-06-29T01:32:47.027Z,3.63
2018-06-29T01:35:50.670Z,3.43
2018-06-29T01:38:54.295Z,3.50
2018-06-29T01:41:57.913Z,3.40
2018-06-29T01:45:01.343Z,3.70
2018-06-29T01:48:05.406Z,3.50
2018-06-29T01:51:09.026Z,3.70
2018-06-29T01:54:12.466Z,3.43
2018-06-29T01:57:15.977Z,3.33
2018-06-29T02:00:20.726Z,3.83
2018-06-29T02:03:24.618Z,3.60
2018-06-29T02:06:28.529Z,3.87
2018-06-29T02:09:32.130Z,3.60
2018-06-29T02:12:35.754Z,3.40
2018-06-29T02:15:39.363Z,3.30
2018-06-29T02:18:42.818Z,3.50
2018-06-29T02:21:46.446Z,3.50
2018-06-29T02:24:50.074Z,3.60
2018-06-29T02:27:53.508Z,3.53
2018-06-29T02:30:57.127Z,3.17
2018-06-29T02:34:00.737Z,3.57
2018-06-29T02:37:04.648Z,3.50
2018-06-29T02:40:08.264Z,3.53
2018-06-29T02:43:11.895Z,3.50
2018-06-29T02:46:15.427Z,3.60
2018-06-29T02:49:18.955Z,3.77
2018-06-29T02:52:22.657Z,3.70
2018-06-29T02:55:26.275Z,3.57
2018-06-29T02:58:29.888Z,3.27
2018-06-29T03:01:33.535Z,3.57
2018-06-29T03:04:37.354Z,3.57
2018-06-29T03:07:40.973Z,3.77
2018-06-29T03:10:44.591Z,3.53
2018-06-29T03:13:48.240Z,3.80
2018-06-29T03:16:51.883Z,3.50
2018-06-29T03:19:55.603Z,3.03
2018-06-29T03:22:59.212Z,3.47
2018-06-29T03:26:02.868Z,3.70
2018-06-29T03:29:06.498Z,3.93
2018-06-29T03:32:10.286Z,3.40
2018-06-29T03:35:13.983Z,3.87
2018-06-29T03:38:17.623Z,3.20
2018-06-29T03:41:21.237Z,3.53
2018-06-29T03:44:24.878Z,3.73
2018-06-29T03:47:28.518Z,3.80
2018-06-29T03:50:32.159Z,3.40
2018-06-29T03:53:35.767Z,3.40
2018-06-29T03:56:39.414Z,3.43
2018-06-29T03:59:43.028Z,3.33
2018-06-29T04:02:46.694Z,3.20
2018-06-29T04:05:50.313Z,3.25
2018-06-29T04:08:53.922Z,3.17
2018-06-29T04:11:57.564Z,3.87
2018-06-29T04:15:01.166Z,3.33
2018-06-29T04:18:04.598Z,3.30
2018-06-29T04:21:08.143Z,2.90
2018-06-29T04:24:11.771Z,3.20
2018-06-29T04:27:15.224Z,3.30
2018-06-29T04:30:18.819Z,3.02
2018-06-29T04:33:22.731Z,2.90
2018-06-29T04:36:26.424Z,2.75
2018-06-29T04:39:30.058Z,3.22
2018-06-29T04:42:33.672Z,2.70
2018-06-29T04:45:37.311Z,2.83
2018-06-29T04:48:40.931Z,3.00
2018-06-29T04:51:44.563Z,2.90
2018-06-29T04:54:48.171Z,3.08
2018-06-29T04:57:51.631Z,3.10
2018-06-29T05:00:55.223Z,3.05
2018-06-29T05:03:58.803Z,2.98
2018-06-29T05:07:02.444Z,2.80
2018-06-29T05:10:06.199Z,3.17
2018-06-29T05:13:09.883Z,3.15
2018-06-29T05:16:13.243Z,3.37
2018-06-29T05:19:16.788Z,2.95
2018-06-29T05:22:20.435Z,3.10
2018-06-29T05:25:24.045Z,3.25
2018-06-29T05:28:27.793Z,3.05
2018-06-29T05:31:31.431Z,3.10
2018-06-29T05:34:35.120Z,3.00
2018-06-29T05:37:38.708Z,3.50
2018-06-29T05:40:42.457Z,2.90
2018-06-29T05:43:46.097Z,2.72
2018-06-29T05:46:49.735Z,2.70
2018-06-29T05:49:53.152Z,2.60
2018-06-29T05:52:56.711Z,3.08
2018-06-29T05:56:00.367Z,2.83
2018-06-29T05:59:04.441Z,2.95
2018-06-29T06:02:08.848Z,3.35
2018-06-29T06:05:12.548Z,2.80
2018-06-29T06:08:16.164Z,3.60
2018-06-29T06:11:19.616Z,5.25
2018-06-29T06:14:23.143Z,3.10
2018-06-29T06:17:26.902Z,3.90
2018-06-29T06:20:30.530Z,3.67
2018-06-29T06:23:34.215Z,3.00
2018-06-29T06:26:37.877Z,3.00
2018-06-29T06:29:41.490Z,2.25
2018-06-29T06:32:44.977Z,2.65
2018-06-29T06:35:48.505Z,3.12
2018-06-29T06:38:52.165Z,2.72
2018-06-29T06:41:55.844Z,3.15
2018-06-29T06:44:59.737Z,2.95
2018-06-29T06:48:03.651Z,2.60
2018-06-29T06:51:07.512Z,2.85
2018-06-29T06:54:11.121Z,3.05
2018-06-29T06:57:15.100Z,2.50
2018-06-29T07:00:19.337Z,3.02
2018-06-29T07:03:22.859Z,2.80
2018-06-29T07:06:26.483Z,2.52
2018-06-29T07:09:30.099Z,3.17
2018-06-29T07:12:33.992Z,3.00
2018-06-29T07:15:37.516Z,2.77
2018-06-29T07:18:41.167Z,2.52
2018-06-29T07:21:45.038Z,2.50
2018-06-29T07:24:48.678Z,2.65
2018-06-29T07:27:52.365Z,2.47
2018-06-29T07:30:55.965Z,2.58
2018-06-29T07:33:59.398Z,2.25
2018-06-29T07:37:02.930Z,2.85
2018-06-29T07:40:06.670Z,2.20
2018-06-29T07:43:10.282Z,2.20
2018-06-29T07:46:14.075Z,2.30
2018-06-29T07:49:17.675Z,2.12
2018-06-29T07:52:21.638Z,1.82
2018-06-29T07:55:25.493Z,2.25
2018-06-29T07:58:29.259Z,2.30
2018-06-29T08:01:32.779Z,2.87
2018-06-29T08:04:36.402Z,2.27
2018-06-29T08:07:40.500Z,2.17
2018-06-29T08:10:44.318Z,1.90
2018-06-29T08:13:47.850Z,2.12
2018-06-29T08:16:51.514Z,2.62
2018-06-29T08:19:55.227Z,2.60
2018-06-29T08:22:58.840Z,2.30
2018-06-29T08:26:14.879Z,2.92
2018-06-29T08:29:18.496Z,2.58
2018-06-29T08:32:22.179Z,2.58
2018-06-29T08:35:25.783Z,2.22
2018-06-29T08:38:29.425Z,2.40
2018-06-29T08:41:32.850Z,2.02
2018-06-29T08:44:36.401Z,4.83
2018-06-29T08:48:43.260Z,2.83
2018-06-29T08:51:46.900Z,5.40
2018-06-29T08:54:50.506Z,2.40
2018-06-29T08:57:53.973Z,2.10
2018-06-29T09:00:57.511Z,2.33
2018-06-29T09:04:01.083Z,2.40
2018-06-29T09:07:04.656Z,1.80
2018-06-29T09:10:08.483Z,2.22
2018-06-29T09:13:12.126Z,3.02
2018-06-29T09:16:15.763Z,2.35
2018-06-29T09:19:19.369Z,2.50
2018-06-29T09:22:23.022Z,2.20
2018-06-29T09:25:26.451Z,1.98
2018-06-29T09:28:30.036Z,2.08
2018-06-29T09:31:33.499Z,2.20
2018-06-29T09:34:37.031Z,2.27
2018-06-29T09:37:40.633Z,2.40
2018-06-29T09:40:44.092Z,2.42
2018-06-29T09:43:48.084Z,2.67
2018-06-29T09:46:51.750Z,3.42
2018-06-29T09:49:55.419Z,2.30
2018-06-29T09:52:59.086Z,2.25
2018-06-29T09:56:02.683Z,2.20
2018-06-29T09:59:06.333Z,1.98
2018-06-29T10:02:09.934Z,2.20
2018-06-29T10:05:13.558Z,2.30
2018-06-29T10:08:18.116Z,2.50
2018-06-29T10:11:21.746Z,2.40
2018-06-29T10:14:25.466Z,2.87
2018-06-29T10:17:29.142Z,2.20
2018-06-29T10:20:32.891Z,2.58
2018-06-29T10:23:36.521Z,2.22
2018-06-29T10:26:40.152Z,2.50
2018-06-29T10:29:43.901Z,2.42
2018-06-29T10:32:47.496Z,3.65
2018-06-29T10:35:50.937Z,2.62
2018-06-29T10:38:54.460Z,3.02
2018-06-29T10:41:58.092Z,2.65
2018-06-29T10:45:01.649Z,2.27
2018-06-29T10:48:05.470Z,2.50
2018-06-29T10:51:09.102Z,1.90
2018-06-29T10:54:12.745Z,2.37
2018-06-29T10:57:16.351Z,2.40
2018-06-29T11:00:20.531Z,2.60
2018-06-29T11:03:24.189Z,1.98
2018-06-29T11:06:27.811Z,2.70
2018-06-29T11:09:31.257Z,2.92
2018-06-29T11:12:34.969Z,2.30
2018-06-29T11:15:38.666Z,2.52
2018-06-29T11:18:42.312Z,2.47
2018-06-29T11:21:45.999Z,2.90
2018-06-29T11:24:50.373Z,2.67
2018-06-29T11:27:53.826Z,2.58
2018-06-29T11:30:57.391Z,2.60
2018-06-29T11:34:01.052Z,3.20
2018-06-29T11:37:04.770Z,2.62
2018-06-29T11:40:08.413Z,2.50
2018-06-29T11:43:12.126Z,3.47
2018-06-29T11:46:15.738Z,2.92
2018-06-29T11:49:19.401Z,4.00
2018-06-29T11:52:23.066Z,3.05
2018-06-29T11:55:26.703Z,2.52
2018-06-29T11:58:30.359Z,2.90
2018-06-29T12:01:34.004Z,2.92
2018-06-29T12:04:37.622Z,2.40
2018-06-29T12:07:41.276Z,2.62
2018-06-29T12:10:44.955Z,3.37
2018-06-29T12:13:48.634Z,2.67
2018-06-29T12:16:52.568Z,2.50
2018-06-29T12:19:56.481Z,4.42
2018-06-29T12:23:00.099Z,3.10
2018-06-29T12:26:03.739Z,3.12
2018-06-29T12:29:07.361Z,2.92
2018-06-29T12:32:10.982Z,2.40
2018-06-29T12:35:14.587Z,2.27
2018-06-29T12:38:18.451Z,2.60
2018-06-29T12:41:22.163Z,3.27
2018-06-29T12:44:25.798Z,2.65
2018-06-29T12:47:29.405Z,2.75
2018-06-29T12:50:33.065Z,2.02
2018-06-29T12:53:36.704Z,2.72
2018-06-29T12:56:40.354Z,3.90
2018-06-29T12:59:44.000Z,3.00
2018-06-29T13:02:47.575Z,4.85
2018-06-29T13:05:51.182Z,3.10
2018-06-29T13:08:54.798Z,2.90
2018-06-29T13:11:58.414Z,2.60
2018-06-29T13:15:01.875Z,2.85
2018-06-29T13:18:05.419Z,2.70
2018-06-29T13:21:09.122Z,2.50
2018-06-29T13:24:12.739Z,3.33
2018-06-29T13:27:16.379Z,3.08
2018-06-29T13:30:20.033Z,2.45
2018-06-29T13:33:23.671Z,1.87
2018-06-29T13:36:27.102Z,2.77
2018-06-29T13:39:30.664Z,1.87
2018-06-29T13:42:34.273Z,2.30
2018-06-29T13:45:37.729Z,3.60
2018-06-29T13:48:41.247Z,2.40
2018-06-29T13:51:44.907Z,1.85
2018-06-29T13:54:48.584Z,2.10
2018-06-29T13:57:52.282Z,2.75
2018-06-29T14:00:55.859Z,2.25
2018-06-29T14:03:59.528Z,2.20
2018-06-29T14:07:03.150Z,2.58
2018-06-29T14:10:07.035Z,2.95
2018-06-29T14:13:10.654Z,2.40
2018-06-29T14:16:14.383Z,2.58
2018-06-29T14:19:18.003Z,2.90
2018-06-29T14:22:21.706Z,2.40
2018-06-29T14:25:25.130Z,3.17
2018-06-29T14:28:28.694Z,2.58
2018-06-29T14:31:32.293Z,3.00
2018-06-29T14:34:35.784Z,2.50
2018-06-29T14:37:39.389Z,2.50
2018-06-29T14:40:43.035Z,2.12
2018-06-29T14:43:46.666Z,2.67
2018-06-29T14:46:50.364Z,2.42
2018-06-29T14:49:54.020Z,3.20
2018-06-29T14:52:57.586Z,2.37
2018-06-29T14:56:01.108Z,2.98
2018-06-29T14:59:04.754Z,5.37
2018-06-29T15:02:08.480Z,13.32
2018-06-29T15:05:12.112Z,3.30
2018-06-29T15:08:15.720Z,3.17
2018-06-29T15:11:19.180Z,4.05
2018-06-29T15:14:22.710Z,2.33
2018-06-29T15:17:26.344Z,2.62
2018-06-29T15:20:29.957Z,4.72
2018-06-29T15:23:33.583Z,3.12
2018-06-29T15:26:37.207Z,2.90
2018-06-29T15:29:40.835Z,3.30
2018-06-29T15:32:44.267Z,2.92
2018-06-29T15:35:47.832Z,2.70
2018-06-29T15:38:51.487Z,2.37
2018-06-29T15:41:55.214Z,2.72
2018-06-29T15:44:58.816Z,2.50
2018-06-29T15:48:02.552Z,2.98
2018-06-29T15:51:06.153Z,3.70
2018-06-29T15:54:09.599Z,3.12
2018-06-29T15:57:13.125Z,4.00
2018-06-29T16:00:17.945Z,3.35
2018-06-29T16:03:21.588Z,3.85
2018-06-29T16:06:25.246Z,3.47
2018-06-29T16:09:28.936Z,4.03
2018-06-29T16:12:32.559Z,3.85
2018-06-29T16:15:36.186Z,4.28
2018-06-29T16:18:39.840Z,4.00
2018-06-29T16:21:43.514Z,4.08
2018-06-29T16:24:48.187Z,4.20
2018-06-29T16:27:51.795Z,3.72
2018-06-29T16:30:55.443Z,4.22
2018-06-29T16:33:59.043Z,3.37
2018-06-29T16:37:03.171Z,3.42
2018-06-29T16:40:06.872Z,3.50
2018-06-29T16:43:10.707Z,3.25
2018-06-29T16:46:14.332Z,3.50
2018-06-29T16:49:17.982Z,2.60
2018-06-29T16:52:21.627Z,2.75
2018-06-29T16:55:25.362Z,3.35
2018-06-29T16:58:29.130Z,2.80
2018-06-29T17:01:32.797Z,3.02
2018-06-29T17:04:36.414Z,3.15
2018-06-29T17:07:40.076Z,3.92
2018-06-29T17:10:43.650Z,3.40
2018-06-29T17:13:48.933Z,3.30
2018-06-29T17:16:52.573Z,3.10
2018-06-29T17:19:56.367Z,3.50
2018-06-29T17:22:59.948Z,3.50
2018-06-29T17:26:03.377Z,3.07
2018-06-29T17:29:07.031Z,3.17
2018-06-29T17:32:10.585Z,3.43
2018-06-29T17:35:14.227Z,3.07
2018-06-29T17:38:17.822Z,3.23
2018-06-29T17:41:21.423Z,2.87
2018-06-29T17:44:24.894Z,3.50
2018-06-29T17:47:28.411Z,3.47
2018-06-29T17:50:32.068Z,3.30
2018-06-29T17:53:36.069Z,3.13
2018-06-29T17:56:39.906Z,3.47
2018-06-29T17:59:43.513Z,3.23
2018-06-29T18:02:47.137Z,3.70
2018-06-29T18:05:50.828Z,3.20
2018-06-29T18:08:54.538Z,3.00
2018-06-29T18:11:58.218Z,3.80
2018-06-29T18:15:01.886Z,3.30
2018-06-29T18:18:05.683Z,3.17
2018-06-29T18:21:09.484Z,2.90
2018-06-29T18:24:13.237Z,2.60
2018-06-29T18:27:16.944Z,2.60
2018-06-29T18:30:20.663Z,2.73
2018-06-29T18:33:24.347Z,2.87
2018-06-29T18:36:28.103Z,2.67
2018-06-29T18:39:31.751Z,2.90
2018-06-29T18:42:35.451Z,2.70
2018-06-29T18:45:39.135Z,2.63
2018-06-29T18:48:42.762Z,2.70
2018-06-29T18:51:46.470Z,2.70
2018-06-29T18:54:50.072Z,3.00
2018-06-29T18:57:53.827Z,2.87
2018-06-29T19:00:57.572Z,2.83
2018-06-29T19:04:01.541Z,2.50
2018-06-29T19:07:05.040Z,2.40
2018-06-29T19:10:08.608Z,2.27
2018-06-29T19:13:12.243Z,2.30
2018-06-29T19:16:15.875Z,2.40
2018-06-29T19:19:19.603Z,2.73
2018-06-29T19:22:23.626Z,5.93
2018-06-29T19:25:29.236Z,3.27
2018-06-29T19:28:32.820Z,2.87
2018-06-29T19:31:36.368Z,2.53
2018-06-29T19:34:39.973Z,2.57
2018-06-29T19:37:43.645Z,2.40
2018-06-29T19:40:47.071Z,2.50
2018-06-29T19:43:50.618Z,2.87
2018-06-29T19:46:55.005Z,2.20
2018-06-29T19:49:58.601Z,2.30
2018-06-29T19:53:02.359Z,2.67
2018-06-29T19:56:05.963Z,2.50
2018-06-29T19:59:09.622Z,2.73
2018-06-29T20:02:13.375Z,2.43
2018-06-29T20:05:17.045Z,2.00
2018-06-29T20:08:20.599Z,3.00
2018-06-29T20:11:24.320Z,3.70
2018-06-29T20:14:27.981Z,1.77
2018-06-29T20:17:31.639Z,1.60
2018-06-29T20:20:35.386Z,2.10
2018-06-29T20:23:38.937Z,1.77
2018-06-29T20:26:42.542Z,1.93
2018-06-29T20:29:46.279Z,1.87
2018-06-29T20:32:49.962Z,1.63
2018-06-29T20:35:53.755Z,1.70
2018-06-29T20:38:57.696Z,1.90
2018-06-29T20:42:01.450Z,1.63
2018-06-29T20:45:05.074Z,1.90
2018-06-29T20:48:08.726Z,1.60
2018-06-29T20:51:13.432Z,1.70
2018-06-29T20:54:17.083Z,1.60
2018-06-29T20:57:20.704Z,1.50
2018-06-29T21:00:25.134Z,1.67
2018-06-29T21:03:28.810Z,1.83
2018-06-29T21:06:32.475Z,1.70
2018-06-29T21:09:35.932Z,1.47
2018-06-29T21:12:39.615Z,1.50
2018-06-29T21:15:43.477Z,1.53
2018-06-29T21:18:47.182Z,1.40
2018-06-29T21:21:50.880Z,1.70
2018-06-29T21:24:54.422Z,1.50
2018-06-29T21:27:57.959Z,1.60
2018-06-29T21:31:01.694Z,1.70
2018-06-29T21:34:05.301Z,1.67
2018-06-29T21:37:09.150Z,1.90
2018-06-29T21:40:12.832Z,1.50
2018-06-29T21:43:16.503Z,1.67
2018-06-29T21:46:20.634Z,1.80
2018-06-29T21:49:24.292Z,1.37
2018-06-29T21:52:27.902Z,1.60
2018-06-29T21:55:31.519Z,2.13
2018-06-29T21:58:34.938Z,1.83
2018-06-29T22:01:38.583Z,1.63
2018-06-29T22:04:42.190Z,1.67
2018-06-29T22:07:46.033Z,1.53
2018-06-29T22:10:49.622Z,1.80
2018-06-29T22:13:53.338Z,1.50
2018-06-29T22:16:56.916Z,1.40
2018-06-29T22:20:00.595Z,1.67
2018-06-29T22:23:04.841Z,1.40
2018-06-29T22:26:08.514Z,1.90
2018-06-29T22:29:12.216Z,1.20
2018-06-29T22:32:15.922Z,1.10
2018-06-29T22:35:19.862Z,1.80
2018-06-29T22:38:23.540Z,1.53
2018-06-29T22:41:27.147Z,1.10
2018-06-29T22:44:30.797Z,1.20
2018-06-29T22:47:34.394Z,1.20
2018-06-29T22:50:37.854Z,1.47
2018-06-29T22:53:41.374Z,1.37
2018-06-29T22:56:44.991Z,1.23
2018-06-29T22:59:48.666Z,1.17
2018-06-29T23:02:57.368Z,1.20
2018-06-29T23:06:01.274Z,1.00
2018-06-29T23:09:06.462Z,1.13
2018-06-29T23:12:10.049Z,1.17
2018-06-29T23:15:13.560Z,1.20
2018-06-29T23:18:16.898Z,1.20
2018-06-29T23:21:20.448Z,1.20
2018-06-29T23:24:24.338Z,1.37
2018-06-29T23:27:27.879Z,1.30
2018-06-29T23:30:31.524Z,1.20
2018-06-29T23:33:35.190Z,1.10
2018-06-29T23:36:38.945Z,1.27
2018-06-29T23:39:43.352Z,1.27
2018-06-29T23:42:46.943Z,1.00
2018-06-29T23:45:50.562Z,1.20
2018-06-29T23:48:54.163Z,1.20
2018-06-29T23:51:57.778Z,1.57
2018-06-29T23:55:01.460Z,1.30
2018-06-29T23:58:05.176Z,1.13
